createdAt,value
2019-01-02T00:02:01.747Z,21.60
2019-01-02T00:04:31.396Z,23.17
2019-01-02T00:07:01.110Z,21.63
2019-01-02T00:09:30.817Z,26.20
2019-01-02T00:12:00.724Z,28.67
2019-01-02T00:14:30.452Z,26.57
2019-01-02T00:17:01.889Z,30.37
2019-01-02T00:19:31.486Z,29.53
2019-01-02T00:24:57.517Z,28.37
2019-01-02T00:27:27.289Z,27.93
2019-01-02T00:29:58.677Z,26.10
2019-01-02T00:32:28.320Z,25.87
2019-01-02T00:34:58.249Z,21.97
2019-01-02T00:37:27.834Z,20.40
2019-01-02T00:39:57.534Z,18.60
2019-01-02T00:42:27.491Z,15.90
2019-01-02T00:44:57.127Z,16.27
2019-01-02T00:47:42.685Z,19.23
2019-01-02T00:50:12.814Z,20.80
2019-01-02T00:52:42.455Z,18.57
2019-01-02T00:58:06.399Z,20.90
2019-01-02T01:03:31.974Z,20.13
2019-01-02T01:06:03.423Z,20.83
2019-01-02T01:08:33.020Z,19.03
2019-01-02T01:11:04.487Z,16.23
2019-01-02T01:13:34.122Z,15.50
2019-01-02T01:16:04.235Z,12.87
2019-01-02T01:18:33.837Z,15.87
2019-01-02T01:21:03.791Z,15.37
2019-01-02T01:23:33.367Z,13.67
2019-01-02T01:26:03.020Z,9.27
2019-01-02T01:28:34.457Z,6.23
2019-01-02T01:31:04.039Z,5.63
2019-01-02T01:33:33.668Z,4.90
2019-01-02T01:36:03.558Z,5.33
2019-01-02T01:38:33.133Z,8.03
2019-01-02T01:41:02.799Z,11.53
2019-01-02T01:46:08.316Z,9.10
2019-01-02T01:48:38.129Z,9.67
2019-01-02T01:51:07.725Z,11.00
2019-01-02T01:53:37.329Z,11.53
2019-01-02T01:56:07.283Z,11.00
2019-01-02T01:58:36.871Z,9.17
2019-01-02T02:01:06.821Z,8.60
2019-01-02T02:03:36.423Z,8.10
2019-01-02T02:06:06.041Z,7.50
2019-01-02T02:08:35.914Z,11.27
2019-01-02T02:13:41.093Z,11.87
2019-01-02T02:23:25.938Z,13.17
2019-01-02T02:42:10.371Z,4.43
2019-01-02T02:45:32.696Z,4.60
2019-01-02T02:58:54.168Z,5.80
2019-01-02T03:01:45.878Z,6.90
2019-01-02T03:05:00.621Z,5.50
2019-01-02T03:22:45.289Z,9.27
2019-01-02T04:29:53.419Z,5.80
2019-01-02T04:50:54.932Z,5.43
2019-01-02T04:53:31.487Z,5.30
2019-01-02T04:56:01.263Z,5.00
2019-01-02T04:58:30.908Z,4.83
2019-01-02T05:01:00.511Z,4.30
2019-01-02T05:03:30.184Z,4.00
2019-01-02T05:05:59.823Z,3.70
2019-01-02T05:08:29.402Z,3.87
2019-01-02T05:10:59.091Z,4.00
2019-01-02T05:13:28.679Z,4.00
2019-01-02T05:15:58.343Z,3.80
2019-01-02T05:18:28.147Z,4.37
2019-01-02T05:20:57.713Z,3.70
2019-01-02T05:23:27.322Z,4.13
2019-01-02T05:25:57.059Z,4.10
2019-01-02T05:28:26.708Z,4.30
2019-01-02T05:30:56.379Z,7.37
2019-01-02T05:33:26.011Z,6.93
2019-01-02T05:35:55.646Z,13.10
2019-01-02T05:38:25.257Z,13.10
2019-01-02T05:40:54.999Z,9.23
2019-01-02T05:43:24.626Z,6.17
2019-01-02T05:45:54.265Z,4.67
2019-01-02T05:48:23.904Z,6.93
2019-01-02T05:50:53.592Z,9.63
2019-01-02T05:53:23.249Z,7.20
2019-01-02T05:55:53.038Z,8.57
2019-01-02T05:58:22.757Z,7.13
2019-01-02T06:00:52.372Z,6.53
2019-01-02T06:03:22.028Z,6.33
2019-01-02T06:05:51.615Z,6.93
2019-01-02T06:08:21.279Z,8.03
2019-01-02T06:10:51.014Z,7.77
2019-01-02T06:13:20.713Z,10.13
2019-01-02T06:15:50.297Z,12.27
2019-01-02T06:20:54.813Z,13.20
2019-01-02T06:23:24.500Z,13.23
2019-01-02T06:25:54.290Z,15.23
2019-01-02T06:28:23.958Z,17.17
2019-01-02T06:30:53.717Z,24.90
2019-01-02T06:33:23.320Z,26.97
2019-01-02T06:35:52.943Z,21.27
2019-01-02T06:41:17.493Z,17.17
2019-01-02T06:43:47.185Z,13.27
2019-01-02T06:46:16.826Z,9.43
2019-01-02T06:48:46.768Z,9.80
2019-01-02T06:51:16.434Z,9.60
2019-01-02T06:53:46.116Z,9.13
2019-01-02T06:56:15.747Z,8.63
2019-01-02T06:58:45.439Z,9.80
2019-01-02T07:01:15.070Z,12.27
2019-01-02T07:03:44.719Z,13.33
2019-01-02T07:06:14.388Z,13.60
2019-01-02T07:08:43.979Z,14.33
2019-01-02T07:11:13.588Z,9.60
2019-01-02T07:13:43.268Z,11.70
2019-01-02T07:16:12.974Z,10.50
2019-01-02T07:18:42.650Z,14.10
2019-01-02T07:21:12.378Z,12.03
2019-01-02T07:23:41.985Z,12.50
2019-01-02T07:26:11.725Z,9.37
2019-01-02T07:28:41.411Z,7.03
2019-01-02T07:31:11.163Z,5.53
2019-01-02T07:37:37.022Z,6.83
2019-01-02T07:40:44.847Z,7.27
2019-01-02T07:43:52.272Z,7.70
2019-01-02T07:47:01.201Z,8.30
2019-01-02T07:49:56.461Z,6.40
2019-01-02T07:57:15.525Z,5.30
2019-01-02T08:00:23.102Z,5.53
2019-01-02T08:03:31.705Z,5.83
2019-01-02T08:06:40.693Z,7.10
2019-01-02T08:09:37.056Z,7.17
2019-01-02T08:12:18.548Z,6.67
2019-01-02T08:15:27.328Z,5.50
2019-01-02T08:18:36.532Z,5.50
2019-01-02T08:21:43.963Z,5.50
2019-01-02T08:24:52.699Z,5.60
2019-01-02T08:28:01.523Z,6.27
2019-01-02T08:31:10.035Z,6.30
2019-01-02T08:34:18.086Z,6.20
2019-01-02T08:37:26.933Z,5.77
2019-01-02T08:40:36.001Z,5.83
2019-01-02T08:43:30.304Z,6.00
2019-01-02T08:46:37.991Z,5.80
2019-01-02T08:49:32.046Z,6.97
2019-01-02T08:52:40.468Z,8.20
2019-01-02T09:19:03.933Z,8.93
2019-01-02T10:03:19.750Z,8.13
2019-01-02T10:36:49.430Z,4.17
2019-01-02T11:03:16.372Z,4.67
2019-01-02T11:06:24.165Z,5.07
2019-01-02T11:42:04.099Z,3.53
2019-01-02T11:48:04.079Z,2.37
2019-01-02T11:50:33.674Z,2.40
2019-01-02T11:53:03.268Z,1.97
2019-01-02T11:55:32.925Z,2.07
2019-01-02T11:58:02.592Z,2.00
2019-01-02T12:00:32.285Z,1.80
2019-01-02T12:35:03.666Z,2.90
2019-01-02T12:37:33.272Z,2.30
2019-01-02T12:40:02.891Z,1.80
2019-01-02T12:45:27.420Z,1.80
2019-01-02T12:47:57.070Z,1.77
2019-01-02T12:50:26.651Z,1.70
2019-01-02T12:52:56.228Z,2.10
2019-01-02T12:55:25.877Z,2.57
2019-01-02T12:57:55.516Z,2.50
2019-01-02T13:00:45.533Z,2.43
2019-01-02T13:32:41.496Z,3.40
2019-01-02T13:35:50.203Z,3.10
2019-01-02T13:38:57.634Z,2.77
2019-01-02T13:57:00.975Z,3.00
2019-01-02T13:59:30.614Z,2.93
2019-01-02T14:02:00.274Z,3.10
2019-01-02T14:04:29.986Z,2.40
2019-01-02T14:06:59.593Z,2.23
2019-01-02T14:09:29.270Z,2.43
2019-01-02T14:11:59.002Z,2.10
2019-01-02T14:14:28.642Z,2.60
2019-01-02T14:16:58.265Z,3.47
2019-01-02T14:19:27.900Z,3.57
2019-01-02T14:21:57.525Z,3.60
2019-01-02T14:24:27.185Z,3.57
2019-01-02T14:26:56.860Z,5.07
2019-01-02T14:29:26.490Z,5.93
2019-01-02T14:31:56.083Z,5.23
2019-01-02T14:34:25.711Z,5.43
2019-01-02T14:36:55.302Z,4.80
2019-01-02T14:39:25.783Z,5.00
2019-01-02T14:41:55.563Z,3.97
2019-01-02T14:44:25.143Z,5.50
2019-01-02T14:46:54.770Z,4.57
2019-01-02T14:49:24.428Z,6.10
2019-01-02T14:51:54.092Z,6.63
2019-01-02T14:54:23.745Z,7.40
2019-01-02T14:59:29.166Z,6.30
2019-01-02T15:01:58.843Z,6.27
2019-01-02T15:04:28.488Z,7.07
2019-01-02T15:06:58.073Z,7.17
2019-01-02T15:09:27.738Z,7.97
2019-01-02T15:11:57.387Z,8.70
2019-01-02T15:14:27.149Z,8.37
2019-01-02T15:16:56.833Z,9.00
2019-01-02T15:19:26.430Z,8.40
2019-01-02T15:21:56.024Z,8.77
2019-01-02T15:24:25.670Z,10.80
2019-01-02T15:26:55.258Z,12.33
2019-01-02T15:29:24.853Z,13.47
2019-01-02T15:34:49.576Z,13.07
2019-01-02T15:37:19.199Z,15.23
2019-01-02T15:39:48.780Z,13.20
2019-01-02T15:42:18.376Z,14.63
2019-01-02T15:44:48.027Z,14.20
2019-01-02T15:47:17.648Z,10.63
2019-01-02T15:49:47.252Z,10.37
2019-01-02T15:54:52.024Z,9.20
2019-01-02T15:57:21.671Z,8.73
2019-01-02T15:59:51.254Z,7.67
2019-01-02T16:02:20.846Z,9.73
2019-01-02T16:04:50.470Z,8.40
2019-01-02T16:07:20.097Z,9.03
2019-01-02T16:09:49.659Z,9.93
2019-01-02T16:12:19.431Z,9.40
2019-01-02T16:14:49.121Z,8.97
2019-01-02T16:17:18.727Z,10.73
2019-01-02T16:19:48.391Z,11.40
2019-01-02T16:22:18.041Z,10.50
2019-01-02T16:24:47.612Z,9.77
2019-01-02T16:27:17.228Z,10.10
2019-01-02T16:35:53.936Z,8.43
2019-01-02T16:38:23.741Z,8.90
2019-01-02T16:40:53.513Z,8.20
2019-01-02T16:43:23.123Z,8.97
2019-01-02T16:45:52.808Z,8.20
2019-01-02T16:48:22.449Z,7.67
2019-01-02T16:50:52.111Z,6.87
2019-01-02T16:56:08.861Z,9.53
2019-01-02T16:58:42.628Z,8.77
2019-01-02T17:01:15.647Z,8.10
2019-01-02T17:03:54.027Z,8.57
2019-01-02T17:06:32.951Z,7.93
2019-01-02T17:09:09.902Z,7.47
2019-01-02T17:11:42.885Z,6.83
2019-01-02T17:14:35.403Z,7.13
2019-01-02T17:17:05.079Z,7.93
2019-01-02T17:19:34.695Z,7.90
2019-01-02T17:22:04.324Z,8.13
2019-01-02T17:24:33.923Z,8.63
2019-01-02T17:27:03.526Z,9.10
2019-01-02T17:39:11.230Z,7.70
2019-01-02T17:41:43.181Z,7.93
2019-01-02T17:44:34.092Z,8.07
2019-01-02T17:47:13.975Z,7.23
2019-01-02T17:49:49.877Z,7.17
2019-01-02T17:52:21.477Z,7.43
2019-01-02T17:54:56.454Z,6.60
2019-01-02T17:57:27.751Z,7.17
2019-01-02T17:59:58.758Z,6.20
2019-01-02T18:02:30.123Z,6.53
2019-01-02T18:05:00.758Z,5.87
2019-01-02T18:07:34.009Z,5.43
2019-01-02T18:15:53.744Z,5.80
2019-01-02T18:18:25.386Z,5.90
2019-01-02T18:21:02.911Z,6.00
2019-01-02T18:23:36.025Z,5.37
2019-01-02T18:26:16.833Z,5.47
2019-01-02T18:28:50.671Z,5.43
2019-01-02T18:31:25.117Z,4.90
2019-01-02T18:33:58.138Z,5.37
2019-01-02T18:36:28.581Z,5.30
2019-01-02T18:38:59.264Z,4.97
2019-01-02T18:41:30.217Z,5.43
2019-01-02T18:44:03.431Z,5.57
2019-01-02T18:46:33.650Z,5.80
2019-01-02T18:49:10.320Z,5.83
2019-01-02T18:51:41.477Z,5.67
2019-01-02T18:54:11.996Z,5.97
2019-01-02T18:56:42.385Z,6.07
2019-01-02T19:02:08.221Z,5.27
2019-01-02T19:04:44.631Z,5.07
2019-01-02T19:07:17.647Z,5.43
2019-01-02T19:09:48.425Z,5.30
2019-01-02T19:12:40.842Z,5.43
2019-01-02T19:15:32.304Z,5.53
2019-01-02T19:18:02.770Z,5.60
2019-01-02T19:20:34.136Z,5.10
2019-01-02T19:23:04.819Z,4.80
2019-01-02T19:25:39.709Z,5.43
2019-01-02T19:28:10.547Z,5.37
2019-01-02T19:30:42.485Z,6.40
2019-01-02T19:33:15.663Z,4.60
2019-01-02T19:35:46.995Z,5.03
2019-01-02T19:38:18.447Z,4.97
2019-01-02T19:40:51.489Z,4.13
2019-01-02T19:43:29.525Z,4.30
2019-01-02T19:45:59.761Z,4.40
2019-01-02T19:48:30.747Z,4.03
2019-01-02T19:51:08.840Z,4.03
2019-01-02T19:53:59.135Z,4.07
2019-01-02T19:59:28.454Z,4.17
2019-01-02T20:02:04.259Z,3.90
2019-01-02T20:04:58.646Z,4.17
2019-01-02T20:10:54.161Z,3.87
2019-01-02T20:13:24.713Z,3.50
2019-01-02T20:15:57.751Z,3.53
2019-01-02T20:18:28.821Z,3.70
2019-01-02T20:20:59.456Z,3.70
2019-01-02T20:23:29.088Z,3.73
2019-01-02T20:25:58.853Z,3.83
2019-01-02T20:28:28.483Z,4.00
2019-01-02T20:30:58.148Z,4.00
2019-01-02T20:33:27.871Z,3.80
2019-01-02T20:35:57.787Z,3.80
2019-01-02T20:38:27.470Z,3.70
2019-01-02T20:40:57.205Z,3.53
2019-01-02T20:43:26.856Z,3.57
2019-01-02T20:45:56.463Z,3.57
2019-01-02T20:48:26.352Z,3.40
2019-01-02T20:50:55.977Z,3.37
2019-01-02T20:53:25.643Z,3.10
2019-01-02T20:55:55.348Z,3.60
2019-01-02T20:58:25.111Z,3.27
2019-01-02T21:00:54.763Z,3.60
2019-01-02T21:03:24.423Z,3.10
2019-01-02T21:05:54.038Z,3.10
2019-01-02T21:08:23.750Z,3.23
2019-01-02T21:10:53.407Z,2.97
2019-01-02T21:13:23.103Z,3.30
2019-01-02T21:15:52.785Z,3.10
2019-01-02T21:18:22.492Z,3.40
2019-01-02T21:20:52.234Z,3.10
2019-01-02T21:23:21.843Z,3.47
2019-01-02T21:25:51.756Z,3.57
2019-01-02T21:28:21.431Z,3.67
2019-01-02T21:30:51.013Z,3.47
2019-01-02T21:33:20.908Z,3.57
2019-01-02T21:35:50.477Z,3.30
2019-01-02T21:38:20.117Z,3.27
2019-01-02T21:40:49.851Z,3.47
2019-01-02T21:43:19.475Z,2.90
2019-01-02T21:45:49.182Z,2.73
2019-01-02T21:48:18.809Z,3.20
2019-01-02T21:50:48.398Z,3.20
2019-01-02T21:53:18.173Z,3.10
2019-01-02T21:55:47.869Z,3.70
2019-01-02T21:58:17.542Z,3.30
2019-01-02T22:00:47.137Z,3.17
2019-01-02T22:03:16.958Z,3.20
2019-01-02T22:05:46.597Z,3.20
2019-01-02T22:09:08.834Z,3.07
2019-01-02T22:11:42.236Z,3.40
2019-01-02T22:14:12.206Z,3.57
2019-01-02T22:16:47.683Z,3.70
2019-01-02T22:19:20.552Z,3.50
2019-01-02T22:21:53.368Z,3.60
2019-01-02T22:24:25.510Z,3.60
2019-01-02T22:26:58.775Z,3.43
2019-01-02T22:29:29.871Z,3.60
2019-01-02T22:32:00.618Z,3.40
2019-01-02T22:34:32.521Z,3.53
2019-01-02T22:37:08.196Z,3.33
2019-01-02T22:39:46.394Z,3.80
2019-01-02T22:42:17.817Z,3.40
2019-01-02T22:44:53.549Z,3.50
2019-01-02T22:47:24.583Z,3.50
2019-01-02T22:49:59.591Z,3.50
2019-01-02T22:52:31.995Z,3.63
2019-01-02T22:55:13.860Z,3.57
2019-01-02T22:57:47.559Z,3.47
2019-01-02T23:00:45.258Z,3.70
2019-01-02T23:03:33.313Z,3.53
2019-01-02T23:06:34.521Z,3.63
2019-01-02T23:09:33.411Z,3.20
2019-01-02T23:12:29.458Z,3.50
2019-01-02T23:19:11.170Z,3.10
2019-01-02T23:22:00.770Z,3.00
2019-01-02T23:24:54.131Z,3.33
2019-01-02T23:27:43.568Z,3.20
2019-01-02T23:30:33.340Z,3.40
2019-01-02T23:33:22.669Z,3.30
2019-01-02T23:39:23.561Z,3.17
2019-01-02T23:42:11.967Z,3.57
2019-01-02T23:45:00.476Z,3.30
2019-01-02T23:47:48.925Z,3.50
2019-01-02T23:53:32.502Z,3.30
2019-01-02T23:56:22.152Z,3.27
2019-01-02T23:59:11.563Z,3.37
